createdAt,value
2016-07-19T00:00:09.352Z,16.02
2016-07-19T00:00:20.157Z,15.94
2016-07-19T00:00:30.095Z,15.94
2016-07-19T00:00:39.368Z,15.89
2016-07-19T00:00:50.104Z,15.92
2016-07-19T00:00:59.583Z,15.9
2016-07-19T00:01:10.111Z,16.02
2016-07-19T00:01:20.122Z,15.9
2016-07-19T00:01:30.169Z,15.94
2016-07-19T00:01:40.126Z,15.84
2016-07-19T00:01:50.137Z,15.89
2016-07-19T00:01:59.409Z,15.86
2016-07-19T00:02:09.545Z,15.89
2016-07-19T00:02:20.223Z,15.89
2016-07-19T00:02:30.152Z,15.86
2016-07-19T00:02:40.160Z,15.92
2016-07-19T00:02:50.164Z,15.86
2016-07-19T00:03:00.171Z,15.89
2016-07-19T00:03:10.176Z,15.84
2016-07-19T00:03:20.181Z,15.89
2016-07-19T00:03:30.270Z,15.89
2016-07-19T00:03:40.195Z,15.89
2016-07-19T00:03:50.196Z,15.84
2016-07-19T00:04:00.154Z,15.84
2016-07-19T00:04:10.472Z,15.8
2016-07-19T00:04:20.216Z,15.86
2016-07-19T00:04:30.261Z,15.92
2016-07-19T00:04:40.224Z,15.86
2016-07-19T00:04:49.508Z,15.87
2016-07-19T00:05:00.235Z,15.87
2016-07-19T00:05:10.240Z,15.84
2016-07-19T00:05:20.304Z,15.82
2016-07-19T00:05:30.259Z,15.75
2016-07-19T00:05:40.257Z,15.9
2016-07-19T00:05:50.265Z,15.84
2016-07-19T00:06:00.264Z,15.87
2016-07-19T00:06:10.412Z,15.86
2016-07-19T00:06:20.275Z,15.84
2016-07-19T00:06:30.281Z,15.82
2016-07-19T00:06:40.289Z,15.75
2016-07-19T00:06:50.292Z,15.89
2016-07-19T00:06:59.568Z,15.76
2016-07-19T00:07:10.306Z,15.75
2016-07-19T00:07:20.316Z,15.8
2016-07-19T00:07:29.599Z,15.82
2016-07-19T00:07:40.317Z,15.75
2016-07-19T00:07:50.324Z,15.76
2016-07-19T00:07:59.605Z,15.76
2016-07-19T00:08:09.604Z,15.82
2016-07-19T00:08:20.347Z,15.75
2016-07-19T00:08:30.345Z,15.8
2016-07-19T00:08:39.622Z,15.83
2016-07-19T00:08:49.626Z,15.8
2016-07-19T00:08:59.632Z,15.75
2016-07-19T00:09:10.368Z,15.68
2016-07-19T00:09:19.643Z,15.82
2016-07-19T00:09:30.375Z,15.78
2016-07-19T00:09:40.382Z,15.82
2016-07-19T00:09:49.660Z,15.69
2016-07-19T00:10:00.392Z,15.83
2016-07-19T00:10:09.669Z,15.83
2016-07-19T00:10:20.407Z,15.69
2016-07-19T00:10:29.682Z,15.82
2016-07-19T00:10:40.413Z,15.71
2016-07-19T00:10:50.420Z,15.76
2016-07-19T00:11:00.425Z,15.76
2016-07-19T00:11:10.431Z,15.71
2016-07-19T00:11:20.435Z,15.76
2016-07-19T00:11:30.441Z,15.82
2016-07-19T00:11:39.717Z,15.82
2016-07-19T00:11:50.451Z,15.72
2016-07-19T00:12:00.456Z,15.75
2016-07-19T00:12:10.461Z,15.71
2016-07-19T00:12:20.474Z,15.75
2016-07-19T00:12:29.745Z,15.8
2016-07-19T00:12:40.479Z,15.82
2016-07-19T00:12:50.481Z,15.74
2016-07-19T00:13:00.486Z,15.74
2016-07-19T00:13:09.763Z,15.76
2016-07-19T00:13:20.499Z,15.75
2016-07-19T00:13:30.503Z,15.78
2016-07-19T00:13:40.511Z,15.71
2016-07-19T00:13:50.515Z,15.71
2016-07-19T00:14:00.519Z,15.74
2016-07-19T00:14:09.796Z,15.76
2016-07-19T00:14:20.530Z,15.72
2016-07-19T00:14:29.806Z,15.75
2016-07-19T00:14:39.812Z,15.82
2016-07-19T00:14:50.546Z,15.71
2016-07-19T00:15:00.181Z,15.71
2016-07-19T00:15:10.557Z,15.64
2016-07-19T00:15:20.562Z,15.71
2016-07-19T00:15:30.567Z,15.71
2016-07-19T00:15:39.843Z,15.71
2016-07-19T00:15:50.573Z,15.72
2016-07-19T00:16:00.582Z,15.71
2016-07-19T00:16:10.585Z,15.71
2016-07-19T00:16:20.592Z,15.71
2016-07-19T00:16:30.600Z,15.68
2016-07-19T00:16:40.050Z,15.76
2016-07-19T00:16:50.615Z,15.65
2016-07-19T00:16:59.884Z,15.64
2016-07-19T00:17:10.626Z,15.69
2016-07-19T00:17:20.626Z,15.71
2016-07-19T00:17:30.640Z,15.72
2016-07-19T00:17:40.634Z,15.69
2016-07-19T00:17:49.911Z,15.71
2016-07-19T00:18:00.648Z,15.69
2016-07-19T00:18:10.649Z,15.69
2016-07-19T00:18:19.923Z,15.74
2016-07-19T00:18:29.934Z,15.68
2016-07-19T00:18:40.665Z,15.67
2016-07-19T00:18:50.671Z,15.67
2016-07-19T00:19:00.677Z,15.65
2016-07-19T00:19:10.975Z,15.71
2016-07-19T00:19:20.724Z,15.57
2016-07-19T00:19:29.965Z,15.67
2016-07-19T00:19:39.970Z,15.67
2016-07-19T00:19:50.703Z,15.71
2016-07-19T00:20:00.710Z,15.64
2016-07-19T00:20:09.984Z,15.68
2016-07-19T00:20:19.990Z,15.67
2016-07-19T00:20:29.996Z,15.64
2016-07-19T00:20:40.000Z,15.64
2016-07-19T00:20:50.739Z,15.6
2016-07-19T00:21:00.009Z,15.64
2016-07-19T00:21:10.745Z,15.68
2016-07-19T00:21:20.752Z,15.67
2016-07-19T00:21:30.755Z,15.6
2016-07-19T00:21:40.760Z,15.64
2016-07-19T00:21:50.768Z,15.56
2016-07-19T00:22:00.774Z,15.6
2016-07-19T00:22:10.779Z,15.6
2016-07-19T00:22:20.783Z,15.65
2016-07-19T00:22:30.790Z,15.67
2016-07-19T00:22:40.795Z,15.6
2016-07-19T00:22:50.800Z,15.56
2016-07-19T00:23:00.803Z,15.57
2016-07-19T00:23:10.809Z,15.54
2016-07-19T00:23:20.085Z,15.67
2016-07-19T00:23:30.821Z,15.71
2016-07-19T00:23:40.097Z,15.57
2016-07-19T00:23:50.830Z,15.59
2016-07-19T00:24:00.835Z,15.62
2016-07-19T00:24:10.114Z,15.64
2016-07-19T00:24:20.847Z,15.65
2016-07-19T00:24:30.122Z,15.59
2016-07-19T00:24:40.131Z,15.54
2016-07-19T00:24:50.863Z,15.64
2016-07-19T00:25:00.867Z,15.56
2016-07-19T00:25:10.144Z,15.56
2016-07-19T00:25:20.876Z,15.57
2016-07-19T00:25:30.881Z,15.59
2016-07-19T00:25:40.889Z,15.56
2016-07-19T00:25:50.895Z,15.54
2016-07-19T00:26:00.899Z,15.54
2016-07-19T00:26:10.175Z,15.56
2016-07-19T00:26:20.906Z,15.53
2016-07-19T00:26:30.914Z,15.53
2016-07-19T00:26:40.922Z,15.53
2016-07-19T00:26:50.925Z,15.59
2016-07-19T00:27:00.930Z,15.53
2016-07-19T00:27:10.205Z,15.53
2016-07-19T00:27:20.939Z,15.46
2016-07-19T00:27:30.944Z,15.53
2016-07-19T00:27:40.950Z,15.5
2016-07-19T00:27:50.955Z,15.53
2016-07-19T00:28:00.232Z,15.46
2016-07-19T00:28:10.965Z,15.49
2016-07-19T00:28:20.973Z,15.51
2016-07-19T00:28:30.976Z,15.5
2016-07-19T00:28:40.982Z,15.54
2016-07-19T00:28:50.988Z,15.5
2016-07-19T00:29:00.261Z,15.44
2016-07-19T00:29:10.997Z,15.5
2016-07-19T00:29:21.003Z,15.53
2016-07-19T00:29:30.275Z,15.49
2016-07-19T00:29:41.014Z,15.51
2016-07-19T00:29:51.020Z,15.49
2016-07-19T00:30:01.024Z,15.46
2016-07-19T00:30:11.030Z,15.35
2016-07-19T00:30:20.305Z,15.49
2016-07-19T00:30:31.042Z,15.49
2016-07-19T00:30:41.046Z,15.39
2016-07-19T00:30:50.323Z,15.44
2016-07-19T00:31:01.057Z,15.35
2016-07-19T00:31:11.063Z,15.35
2016-07-19T00:31:21.064Z,15.46
2016-07-19T00:31:31.074Z,15.41
2016-07-19T00:31:41.075Z,15.41
2016-07-19T00:31:51.083Z,15.35
2016-07-19T00:32:01.088Z,15.44
2016-07-19T00:32:10.374Z,15.36
2016-07-19T00:32:20.372Z,15.43
2016-07-19T00:32:30.373Z,15.5
2016-07-19T00:32:41.107Z,15.49
2016-07-19T00:32:51.113Z,15.43
2016-07-19T00:33:00.391Z,15.44
2016-07-19T00:33:11.127Z,15.41
2016-07-19T00:33:21.132Z,15.38
2016-07-19T00:33:31.133Z,15.38
2016-07-19T00:33:41.149Z,15.44
2016-07-19T00:33:50.416Z,15.47
2016-07-19T00:34:01.152Z,15.43
2016-07-19T00:34:11.157Z,15.44
2016-07-19T00:34:21.163Z,15.44
2016-07-19T00:35:26.592Z,15.43
2016-07-19T00:35:37.316Z,15.47
2016-07-19T00:35:47.325Z,15.38
2016-07-19T00:35:57.320Z,15.36
2016-07-19T00:36:06.597Z,15.43
2016-07-19T00:36:17.335Z,15.38
2016-07-19T00:36:27.342Z,15.46
2016-07-19T00:36:37.341Z,15.43
2016-07-19T00:36:47.348Z,15.38
2016-07-19T00:36:56.626Z,15.44
2016-07-19T00:37:07.360Z,15.39
2016-07-19T00:37:17.364Z,15.51
2016-07-19T00:37:27.370Z,15.39
2016-07-19T00:37:37.376Z,15.41
2016-07-19T00:37:47.382Z,15.41
2016-07-19T00:37:57.384Z,15.39
2016-07-19T00:38:07.392Z,15.41
2016-07-19T00:38:17.396Z,15.35
2016-07-19T00:38:26.671Z,15.36
2016-07-19T00:38:36.677Z,15.39
2016-07-19T00:38:47.412Z,15.35
2016-07-19T00:38:57.419Z,15.43
2016-07-19T00:39:06.693Z,15.44
2016-07-19T00:39:17.428Z,15.39
2016-07-19T00:39:27.432Z,15.36
2016-07-19T00:39:37.438Z,15.36
2016-07-19T00:39:47.449Z,15.39
2016-07-19T00:39:57.446Z,15.39
2016-07-19T00:40:06.723Z,15.32
2016-07-19T00:40:17.458Z,15.41
2016-07-19T00:40:27.461Z,15.39
2016-07-19T00:40:37.467Z,15.39
2016-07-19T00:40:47.474Z,15.31
2016-07-19T00:40:56.753Z,15.31
2016-07-19T00:41:07.487Z,15.44
2016-07-19T00:41:17.493Z,15.38
2016-07-19T00:41:27.498Z,15.34
2016-07-19T00:41:37.499Z,15.36
2016-07-19T00:41:47.505Z,15.39
2016-07-19T00:41:57.512Z,15.31
2016-07-19T00:42:06.788Z,15.34
2016-07-19T00:42:17.522Z,15.31
2016-07-19T00:42:26.800Z,15.32
2016-07-19T00:42:37.532Z,15.27
2016-07-19T00:42:47.538Z,15.34
2016-07-19T00:42:57.544Z,15.35
2016-07-19T00:43:07.548Z,15.31
2016-07-19T00:43:17.557Z,15.34
2016-07-19T00:43:27.559Z,15.34
2016-07-19T00:43:37.566Z,15.32
2016-07-19T00:43:47.569Z,15.34
2016-07-19T00:43:57.575Z,15.31
2016-07-19T00:44:07.576Z,15.34
2016-07-19T00:44:16.868Z,15.31
2016-07-19T00:44:26.860Z,15.34
2016-07-19T00:44:36.865Z,15.32
2016-07-19T00:44:47.601Z,15.34
2016-07-19T00:44:57.605Z,15.28
2016-07-19T00:45:07.612Z,15.31
2016-07-19T00:45:16.888Z,15.28
2016-07-19T00:45:27.619Z,15.32
2016-07-19T00:45:37.628Z,15.25
2016-07-19T00:45:46.904Z,15.32
2016-07-19T00:45:57.638Z,15.29
2016-07-19T00:46:07.642Z,15.34
2016-07-19T00:46:16.918Z,15.35
2016-07-19T00:46:27.654Z,15.34
2016-07-19T00:46:37.663Z,15.29
2016-07-19T00:46:47.663Z,15.32
2016-07-19T00:46:56.939Z,15.29
2016-07-19T00:47:07.674Z,15.29
2016-07-19T00:47:17.678Z,15.35
2016-07-19T00:47:27.685Z,15.32
2016-07-19T00:47:37.688Z,15.31
2016-07-19T00:47:46.965Z,15.31
2016-07-19T00:47:56.972Z,15.35
2016-07-19T00:48:06.978Z,15.31
2016-07-19T00:48:16.982Z,15.32
2016-07-19T00:48:27.716Z,15.31
2016-07-19T00:48:37.721Z,15.21
2016-07-19T00:48:46.998Z,15.21
2016-07-19T00:48:57.004Z,15.25
2016-07-19T00:49:07.737Z,15.31
2016-07-19T00:49:17.741Z,15.34
2016-07-19T00:49:27.017Z,15.2
2016-07-19T00:49:37.755Z,15.25
2016-07-19T00:49:47.027Z,15.23
2016-07-19T00:49:57.033Z,15.23
2016-07-19T00:50:07.769Z,15.23
2016-07-19T00:50:17.774Z,15.21
2016-07-19T00:50:27.778Z,15.28
2016-07-19T00:50:37.055Z,15.25
2016-07-19T00:50:47.788Z,15.28
2016-07-19T00:50:57.791Z,15.2
2016-07-19T00:51:07.068Z,15.21
2016-07-19T00:51:17.804Z,15.25
2016-07-19T00:51:27.811Z,15.28
2016-07-19T00:51:37.817Z,15.27
2016-07-19T00:51:47.090Z,15.23
2016-07-19T00:51:57.827Z,15.34
2016-07-19T00:52:07.832Z,15.2
2016-07-19T00:52:17.839Z,15.21
2016-07-19T00:52:27.112Z,15.27
2016-07-19T00:52:37.845Z,15.2
2016-07-19T00:52:47.852Z,15.23
2016-07-19T00:52:57.856Z,15.2
2016-07-19T00:53:07.864Z,15.27
2016-07-19T00:53:17.874Z,15.16
2016-07-19T00:53:27.145Z,15.28
2016-07-19T00:53:37.878Z,15.29
2016-07-19T00:53:47.885Z,15.23
2016-07-19T00:53:57.890Z,15.25
2016-07-19T00:54:07.164Z,15.25
2016-07-19T00:54:17.173Z,15.19
2016-07-19T00:54:27.903Z,15.28
2016-07-19T00:54:37.909Z,15.28
2016-07-19T00:54:47.913Z,15.35
2016-07-19T00:54:57.922Z,15.21
2016-07-19T00:55:07.926Z,15.23
2016-07-19T00:55:17.933Z,15.28
2016-07-19T00:55:27.206Z,15.27
2016-07-19T00:55:37.945Z,15.23
2016-07-19T00:55:47.955Z,15.25
2016-07-19T00:55:57.951Z,15.21
2016-07-19T00:56:07.957Z,15.31
2016-07-19T00:56:17.965Z,15.28
2016-07-19T00:56:27.968Z,15.23
2016-07-19T00:56:37.973Z,15.28
2016-07-19T00:56:47.248Z,15.16
2016-07-19T00:56:57.984Z,15.27
2016-07-19T00:57:07.985Z,15.23
2016-07-19T00:57:17.993Z,15.28
2016-07-19T00:57:28.000Z,15.25
2016-07-19T00:57:38.001Z,15.21
2016-07-19T00:57:47.277Z,15.21
2016-07-19T00:57:57.283Z,15.11
2016-07-19T00:58:07.290Z,15.27
2016-07-19T00:58:18.023Z,15.28
2016-07-19T00:58:27.302Z,15.17
2016-07-19T00:58:38.034Z,15.19
2016-07-19T00:58:48.041Z,15.21
2016-07-19T00:58:58.050Z,15.31
2016-07-19T00:59:08.050Z,15.27
2016-07-19T00:59:18.055Z,15.1
2016-07-19T00:59:28.058Z,15.23
2016-07-19T00:59:38.067Z,15.11
2016-07-19T00:59:48.074Z,15.2
2016-07-19T00:59:57.346Z,15.23
2016-07-19T01:00:08.082Z,15.17
2016-07-19T01:00:18.087Z,15.17
2016-07-19T01:00:28.092Z,15.25
2016-07-19T01:00:38.099Z,15.2
2016-07-19T01:00:48.101Z,15.17
2016-07-19T01:00:58.108Z,15.19
2016-07-19T01:01:08.112Z,15.2
2016-07-19T01:01:18.119Z,15.16
2016-07-19T01:01:27.394Z,15.19
2016-07-19T01:01:38.128Z,15.17
2016-07-19T01:01:48.134Z,15.23
2016-07-19T01:01:58.139Z,15.17
2016-07-19T01:02:08.147Z,15.11
2016-07-19T01:02:18.151Z,15.21
2016-07-19T01:02:27.424Z,15.23
2016-07-19T01:02:37.431Z,15.14
2016-07-19T01:02:48.179Z,15.23
2016-07-19T01:02:57.440Z,15.25
2016-07-19T01:03:08.177Z,15.13
2016-07-19T01:03:18.182Z,15.19
2016-07-19T01:03:28.186Z,15.14
2016-07-19T01:03:37.462Z,15.14
2016-07-19T01:03:47.468Z,15.21
2016-07-19T01:03:58.201Z,15.17
2016-07-19T01:04:08.207Z,15.14
2016-07-19T01:04:18.213Z,15.19
2016-07-19T01:04:27.490Z,15.16
2016-07-19T01:04:37.492Z,15.11
2016-07-19T01:04:48.226Z,15.13
2016-07-19T01:04:58.233Z,15.17
2016-07-19T01:05:08.237Z,15.14
2016-07-19T01:05:18.240Z,15.17
2016-07-19T01:05:27.520Z,15.16
2016-07-19T01:05:38.256Z,15.25
2016-07-19T01:05:47.536Z,15.23
2016-07-19T01:05:58.264Z,15.16
2016-07-19T01:06:08.272Z,15.16
2016-07-19T01:06:18.285Z,15.11
2016-07-19T01:06:28.282Z,15.11
2016-07-19T01:06:38.286Z,15.16
2016-07-19T01:06:48.291Z,15.23
2016-07-19T01:06:58.297Z,15.14
2016-07-19T01:07:08.302Z,15.11
2016-07-19T01:07:17.576Z,15.13
2016-07-19T01:07:28.311Z,15.14
2016-07-19T01:07:37.590Z,15.14
2016-07-19T01:07:48.323Z,15.14
2016-07-19T01:07:58.327Z,15.14
2016-07-19T01:08:07.603Z,15.16
2016-07-19T01:08:17.606Z,15.21
2016-07-19T01:08:28.341Z,15.14
2016-07-19T01:08:38.346Z,15.14
2016-07-19T01:08:48.355Z,15.13
2016-07-19T01:08:58.363Z,15.13
2016-07-19T01:09:07.634Z,15.13
2016-07-19T01:09:18.369Z,15.17
2016-07-19T01:09:27.645Z,15.17
2016-07-19T01:09:37.650Z,15.13
2016-07-19T01:09:48.385Z,15.17
2016-07-19T01:09:58.388Z,15.25
2016-07-19T01:10:07.664Z,15.17
2016-07-19T01:10:18.402Z,15.16
2016-07-19T01:10:28.406Z,15.13
2016-07-19T01:10:38.426Z,15.11
2016-07-19T01:10:48.416Z,15.14
2016-07-19T01:10:58.424Z,15.13
2016-07-19T01:11:08.426Z,15.17
2016-07-19T01:11:18.432Z,15.17
2016-07-19T01:11:27.705Z,15.1
2016-07-19T01:11:38.442Z,15.14
2016-07-19T01:11:48.449Z,15.14
2016-07-19T01:11:57.722Z,15.02
2016-07-19T01:12:08.458Z,15.14
2016-07-19T01:12:18.487Z,15.14
2016-07-19T01:12:28.471Z,15.21
2016-07-19T01:12:38.473Z,15.16
2016-07-19T01:12:48.477Z,15.11
2016-07-19T01:12:58.486Z,15.19
2016-07-19T01:13:08.489Z,15.25
2016-07-19T01:13:18.493Z,15.06
2016-07-19T01:13:27.771Z,15.11
2016-07-19T01:13:38.506Z,15.14
2016-07-19T01:13:48.509Z,15.1
2016-07-19T01:13:58.512Z,15.07
2016-07-19T01:14:07.791Z,15.03
2016-07-19T01:14:18.522Z,14.99
2016-07-19T01:14:28.532Z,15.09
2016-07-19T01:14:37.813Z,15.07
2016-07-19T01:14:47.811Z,15.07
2016-07-19T01:14:58.546Z,15.13
2016-07-19T01:15:08.553Z,14.98
2016-07-19T01:15:18.569Z,15.06
2016-07-19T01:15:28.564Z,14.98
2016-07-19T01:15:38.568Z,14.98
2016-07-19T01:15:47.843Z,15.1
2016-07-19T01:15:57.846Z,15.03
2016-07-19T01:16:08.583Z,15.07
2016-07-19T01:16:18.592Z,15.07
2016-07-19T01:16:28.592Z,15.13
2016-07-19T01:16:38.597Z,14.96
2016-07-19T01:16:48.605Z,14.98
2016-07-19T01:16:58.610Z,14.96
2016-07-19T01:17:08.615Z,14.94
2016-07-19T01:17:17.889Z,14.92
2016-07-19T01:17:27.895Z,14.95
2016-07-19T01:17:38.628Z,14.99
2016-07-19T01:17:47.906Z,14.95
2016-07-19T01:17:58.640Z,14.96
2016-07-19T01:18:07.913Z,15.01
2016-07-19T01:18:18.648Z,14.96
2016-07-19T01:18:28.656Z,14.94
2016-07-19T01:18:38.661Z,14.98
2016-07-19T01:18:48.670Z,14.95
2016-07-19T01:18:58.672Z,14.89
2016-07-19T01:19:08.676Z,14.94
2016-07-19T01:19:18.681Z,14.94
2016-07-19T01:19:28.686Z,14.99
2016-07-19T01:19:38.693Z,14.91
2016-07-19T01:19:47.967Z,14.91
2016-07-19T01:19:57.971Z,14.98
2016-07-19T01:20:08.703Z,14.95
2016-07-19T01:20:18.711Z,14.81
2016-07-19T01:20:28.718Z,14.95
2016-07-19T01:20:38.721Z,14.94
2016-07-19T01:20:47.997Z,14.89
2016-07-19T01:20:58.736Z,14.88
2016-07-19T01:21:08.738Z,14.88
2016-07-19T01:21:18.013Z,14.86
2016-07-19T01:21:28.019Z,14.84
2016-07-19T01:21:38.752Z,14.81
2016-07-19T01:21:48.760Z,14.86
2016-07-19T01:21:58.772Z,14.89
2016-07-19T01:22:08.772Z,14.86
2016-07-19T01:22:18.775Z,14.89
2016-07-19T01:22:28.778Z,14.89
2016-07-19T01:22:38.788Z,14.91
2016-07-19T01:22:48.062Z,14.86
2016-07-19T01:22:58.800Z,14.83
2016-07-19T01:23:08.800Z,14.81
2016-07-19T01:23:18.076Z,14.83
2016-07-19T01:23:28.810Z,14.88
2016-07-19T01:23:38.087Z,14.77
2016-07-19T01:23:48.826Z,14.89
2016-07-19T01:23:58.825Z,14.86
2016-07-19T01:24:08.100Z,14.86
2016-07-19T01:24:18.839Z,14.86
2016-07-19T01:24:28.844Z,14.77
2016-07-19T01:24:38.851Z,14.88
2016-07-19T01:24:48.854Z,14.8
2016-07-19T01:24:58.861Z,14.86
2016-07-19T01:25:08.863Z,14.8
2016-07-19T01:25:18.870Z,14.86
2016-07-19T01:25:28.874Z,14.83
2016-07-19T01:25:38.877Z,14.81
2016-07-19T01:25:48.156Z,14.75
2016-07-19T01:25:58.158Z,14.8
2016-07-19T01:26:08.892Z,14.73
2016-07-19T01:26:18.898Z,14.8
2016-07-19T01:26:28.176Z,14.72
2016-07-19T01:26:38.910Z,14.72
2016-07-19T01:26:48.914Z,14.73
2016-07-19T01:26:58.920Z,14.72
2016-07-19T01:27:08.195Z,14.68
2016-07-19T01:27:18.931Z,14.78
2016-07-19T01:27:28.204Z,14.68
2016-07-19T01:27:38.943Z,14.7
2016-07-19T01:27:48.943Z,14.65
2016-07-19T01:27:58.952Z,14.69
2016-07-19T01:28:08.225Z,14.7
2016-07-19T01:28:18.960Z,14.69
2016-07-19T01:28:28.967Z,14.68
2016-07-19T01:28:38.971Z,14.7
2016-07-19T01:28:48.248Z,14.75
2016-07-19T01:28:58.979Z,14.64
2016-07-19T01:29:08.257Z,14.65
2016-07-19T01:29:18.993Z,14.72
2016-07-19T01:29:28.998Z,14.68
2016-07-19T01:29:38.274Z,14.73
2016-07-19T01:29:49.009Z,14.75
2016-07-19T01:29:59.012Z,14.69
2016-07-19T01:30:09.018Z,14.7
2016-07-19T01:30:19.024Z,14.68
2016-07-19T01:30:28.295Z,14.64
2016-07-19T01:30:38.303Z,14.72
2016-07-19T01:30:48.307Z,14.73
2016-07-19T01:30:59.045Z,14.65
2016-07-19T01:31:08.320Z,14.69
2016-07-19T01:31:19.056Z,14.64
2016-07-19T01:31:29.058Z,14.64
2016-07-19T01:31:38.334Z,14.7
2016-07-19T01:31:49.069Z,14.75
2016-07-19T01:31:59.076Z,14.64
2016-07-19T01:32:08.350Z,14.6
2016-07-19T01:32:19.086Z,14.72
2016-07-19T01:32:29.091Z,14.68
2016-07-19T01:32:39.094Z,14.62
2016-07-19T01:32:49.098Z,14.65
2016-07-19T01:32:59.107Z,14.64
2016-07-19T01:33:09.110Z,14.62
2016-07-19T01:33:18.384Z,14.6
2016-07-19T01:33:28.391Z,14.58
2016-07-19T01:33:38.395Z,14.61
2016-07-19T01:33:48.406Z,14.68
2016-07-19T01:33:59.133Z,14.65
2016-07-19T01:34:09.144Z,14.69
2016-07-19T01:34:19.145Z,14.58
2016-07-19T01:34:29.151Z,14.62
2016-07-19T01:34:39.157Z,14.62
2016-07-19T01:34:49.162Z,14.62
2016-07-19T01:34:59.166Z,14.6
2016-07-19T01:35:08.444Z,14.64
2016-07-19T01:35:19.177Z,14.65
2016-07-19T01:35:29.185Z,14.68
2016-07-19T01:35:38.461Z,14.65
2016-07-19T01:35:49.192Z,14.57
2016-07-19T01:35:59.198Z,14.64
2016-07-19T01:36:09.204Z,14.57
2016-07-19T01:36:19.207Z,14.62
2016-07-19T01:36:29.213Z,14.57
2016-07-19T01:36:38.496Z,14.57
2016-07-19T01:36:48.495Z,14.55
2016-07-19T01:36:59.231Z,14.64
2016-07-19T01:37:09.239Z,14.61
2016-07-19T01:37:19.239Z,14.57
2016-07-19T01:37:29.246Z,14.61
2016-07-19T01:37:38.534Z,14.69
2016-07-19T01:37:48.528Z,14.54
2016-07-19T01:37:59.259Z,14.6
2016-07-19T01:38:09.266Z,14.6
2016-07-19T01:38:18.541Z,14.58
2016-07-19T01:38:29.280Z,14.54
2016-07-19T01:38:39.282Z,14.55
2016-07-19T01:38:49.287Z,14.58
2016-07-19T01:38:59.294Z,14.55
2016-07-19T01:39:08.571Z,14.58
2016-07-19T01:39:19.301Z,14.6
2016-07-19T01:39:28.577Z,14.5
2016-07-19T01:39:39.312Z,14.58
2016-07-19T01:39:49.316Z,14.6
2016-07-19T01:39:58.595Z,14.61
2016-07-19T01:40:09.328Z,14.58
2016-07-19T01:40:19.332Z,14.64
2016-07-19T01:40:29.339Z,14.61
2016-07-19T01:40:39.344Z,14.61
2016-07-19T01:40:49.350Z,14.6
2016-07-19T01:40:58.627Z,14.55
2016-07-19T01:41:09.360Z,14.51
2016-07-19T01:41:19.364Z,14.6
2016-07-19T01:41:29.369Z,14.6
2016-07-19T01:41:38.646Z,14.52
2016-07-19T01:41:48.648Z,14.57
2016-07-19T01:41:59.383Z,14.55
2016-07-19T01:42:09.391Z,14.58
2016-07-19T01:42:19.395Z,14.58
2016-07-19T01:42:29.399Z,14.54
2016-07-19T01:42:39.405Z,14.57
2016-07-19T01:42:48.681Z,14.5
2016-07-19T01:42:59.417Z,14.55
2016-07-19T01:43:08.692Z,14.52
2016-07-19T01:43:18.693Z,14.54
2016-07-19T01:43:29.431Z,14.46
2016-07-19T01:43:38.705Z,14.5
2016-07-19T01:43:49.439Z,14.52
2016-07-19T01:43:59.447Z,14.52
2016-07-19T01:44:09.450Z,14.45
2016-07-19T01:44:19.456Z,14.55
2016-07-19T01:44:29.462Z,14.57
2016-07-19T01:44:38.737Z,14.57
2016-07-19T01:44:49.474Z,14.5
2016-07-19T01:44:58.753Z,14.52
2016-07-19T01:45:09.480Z,14.52
2016-07-19T01:45:18.756Z,14.51
2016-07-19T01:45:29.494Z,14.51
2016-07-19T01:45:39.502Z,14.5
2016-07-19T01:45:49.502Z,14.54
2016-07-19T01:45:59.507Z,14.51
2016-07-19T01:46:08.781Z,14.46
2016-07-19T01:46:19.514Z,14.51
2016-07-19T01:46:29.524Z,14.46
2016-07-19T01:46:39.529Z,14.47
2016-07-19T01:46:49.531Z,14.42
2016-07-19T01:46:59.538Z,14.52
2016-07-19T01:47:09.543Z,14.51
2016-07-19T01:47:19.548Z,14.37
2016-07-19T01:47:29.553Z,14.46
2016-07-19T01:47:39.558Z,14.54
2016-07-19T01:47:49.565Z,14.57
2016-07-19T01:47:59.570Z,14.47
2016-07-19T01:48:09.572Z,14.47
2016-07-19T01:48:19.581Z,14.55
2016-07-19T01:48:28.853Z,14.47
2016-07-19T01:48:39.587Z,14.46
2016-07-19T01:48:48.867Z,14.43
2016-07-19T01:48:59.605Z,14.46
2016-07-19T01:49:09.604Z,14.55
2016-07-19T01:49:19.610Z,14.51
2016-07-19T01:49:29.614Z,14.5
2016-07-19T01:49:38.890Z,14.43
2016-07-19T01:49:48.895Z,14.43
2016-07-19T01:49:59.632Z,14.45
2016-07-19T01:50:09.636Z,14.39
2016-07-19T01:50:18.911Z,14.45
2016-07-19T01:50:28.913Z,14.52
2016-07-19T01:50:39.652Z,14.52
2016-07-19T01:50:49.653Z,14.52
2016-07-19T01:50:59.664Z,14.47
2016-07-19T01:51:09.668Z,14.51
2016-07-19T01:51:19.671Z,14.37
2016-07-19T01:51:28.950Z,14.46
2016-07-19T01:51:39.680Z,14.5
2016-07-19T01:51:49.684Z,14.52
2016-07-19T01:51:59.695Z,14.46
2016-07-19T01:52:09.698Z,14.5
2016-07-19T01:52:19.700Z,14.45
2016-07-19T01:52:29.707Z,14.46
2016-07-19T01:52:39.715Z,14.45
2016-07-19T01:52:49.720Z,14.46
2016-07-19T01:52:59.726Z,14.42
2016-07-19T01:53:09.001Z,14.39
2016-07-19T01:53:19.738Z,14.4
2016-07-19T01:53:29.740Z,14.43
2016-07-19T01:53:39.746Z,14.45
2016-07-19T01:53:49.751Z,14.43
2016-07-19T01:53:59.755Z,14.39
2016-07-19T01:54:09.758Z,14.43
2016-07-19T01:54:19.764Z,14.43
2016-07-19T01:54:29.769Z,14.4
2016-07-19T01:54:39.775Z,14.45
2016-07-19T01:54:49.047Z,14.4
2016-07-19T01:54:59.053Z,14.43
2016-07-19T01:55:09.062Z,14.4
2016-07-19T01:55:19.795Z,14.46
2016-07-19T01:55:29.070Z,14.43
2016-07-19T01:55:39.804Z,14.5
2016-07-19T01:55:49.083Z,14.43
2016-07-19T01:55:59.816Z,14.4
2016-07-19T01:56:09.819Z,14.43
2016-07-19T01:56:19.826Z,14.45
2016-07-19T01:56:29.101Z,14.39
2016-07-19T01:56:39.833Z,14.33
2016-07-19T01:56:49.841Z,14.36
2016-07-19T01:56:59.122Z,14.33
2016-07-19T01:57:09.852Z,14.42
2016-07-19T01:57:19.858Z,14.42
2016-07-19T01:57:29.862Z,14.39
2016-07-19T01:57:39.863Z,14.43
2016-07-19T01:57:49.144Z,14.36
2016-07-19T01:57:59.876Z,14.43
2016-07-19T01:58:09.883Z,14.45
2016-07-19T01:58:19.888Z,14.36
2016-07-19T01:58:29.893Z,14.42
2016-07-19T01:58:39.166Z,14.39
2016-07-19T01:58:49.172Z,14.46
2016-07-19T01:58:59.178Z,14.42
2016-07-19T01:59:09.911Z,14.43
2016-07-19T01:59:19.917Z,14.29
2016-07-19T01:59:29.922Z,14.37
2016-07-19T01:59:39.198Z,14.45
2016-07-19T01:59:49.931Z,14.42
2016-07-19T01:59:59.210Z,14.45
2016-07-19T02:00:09.214Z,14.4
2016-07-19T02:00:19.952Z,14.33
2016-07-19T02:00:29.952Z,14.36
2016-07-19T02:00:39.960Z,14.39
2016-07-19T02:00:49.233Z,14.35
2016-07-19T02:00:59.972Z,14.4
2016-07-19T02:01:09.972Z,14.4
2016-07-19T02:01:19.979Z,14.42
2016-07-19T02:01:29.985Z,14.39
2016-07-19T02:01:39.991Z,14.4
2016-07-19T02:01:49.266Z,14.39
2016-07-19T02:01:59.270Z,14.39
2016-07-19T02:02:10.006Z,14.33
2016-07-19T02:02:20.010Z,14.35
2016-07-19T02:02:30.014Z,14.33
2016-07-19T02:02:39.293Z,14.4
2016-07-19T02:02:50.026Z,14.29
2016-07-19T02:03:00.031Z,14.33
2016-07-19T02:03:10.034Z,14.32
2016-07-19T02:03:20.040Z,14.4
2016-07-19T02:03:30.046Z,14.35
2016-07-19T02:03:40.050Z,14.33
2016-07-19T02:03:50.055Z,14.32
2016-07-19T02:04:00.062Z,14.35
2016-07-19T02:04:10.066Z,14.36
2016-07-19T02:04:20.071Z,14.43
2016-07-19T02:04:30.075Z,14.33
2016-07-19T02:04:39.351Z,14.32
2016-07-19T02:04:49.356Z,14.28
2016-07-19T02:05:00.090Z,14.33
2016-07-19T02:05:10.094Z,14.37
2016-07-19T02:05:20.103Z,14.28
2016-07-19T02:05:30.107Z,14.39
2016-07-19T02:05:40.110Z,14.39
2016-07-19T02:05:50.116Z,14.35
2016-07-19T02:06:00.121Z,14.33
2016-07-19T02:06:10.128Z,14.4
2016-07-19T02:06:20.140Z,14.39
2016-07-19T02:06:30.136Z,14.36
2016-07-19T02:06:40.142Z,14.39
2016-07-19T02:06:49.416Z,14.37
2016-07-19T02:07:00.154Z,14.33
2016-07-19T02:07:09.428Z,14.36
2016-07-19T02:07:20.167Z,14.35
2016-07-19T02:07:30.170Z,14.35
2016-07-19T02:07:40.174Z,14.32
2016-07-19T02:07:50.179Z,14.36
2016-07-19T02:08:00.185Z,14.39
2016-07-19T02:08:10.187Z,14.42
2016-07-19T02:08:19.464Z,14.39
2016-07-19T02:08:29.470Z,14.33
2016-07-19T02:08:40.204Z,14.35
2016-07-19T02:08:50.209Z,14.33
2016-07-19T02:09:00.218Z,14.28
2016-07-19T02:09:10.219Z,14.36
2016-07-19T02:09:20.224Z,14.29
2016-07-19T02:09:30.229Z,14.33
2016-07-19T02:09:40.234Z,14.4
2016-07-19T02:09:50.239Z,14.37
2016-07-19T02:09:59.515Z,14.36
2016-07-19T02:10:10.250Z,14.35